Time;durP1;ratioP1;P1;durP2;ratioP2;P2;SDS_P1;SDS_P2;PMS_P1;PMS_P2;Temp;Humidity;BMP_temperature;BMP_pressure;BME280_temperature;BME280_humidity;BME280_pressure;Samples;Min_cycle;Max_cycle;Signal;HPM_P1;HPM_P2
2024/01/03 00:01:54;;;;;;;;;;;12.20;61.70;;;10.87;61.65;98501.59;12255142;19;19974;-85
2024/01/03 00:05:56;;;;;;;;;;;12.30;61.60;;;10.89;61.51;98491.84;12252707;19;20356;-85
2024/01/03 00:10:00;;;;;;;;;;;12.30;61.90;;;10.92;61.51;98476.69;12253047;19;19919;-85
2024/01/03 00:14:29;;;;;;;;;;;12.30;61.90;;;11.05;61.40;98495.50;12255252;19;19946;-85
2024/01/03 00:18:43;;;;;;;;;;;12.40;62.40;;;11.08;61.64;98486.53;12253176;19;19923;-85
2024/01/03 00:22:44;;;;;;;;;;;12.40;61.90;;;11.04;61.55;98472.97;12255968;19;19946;-85
2024/01/03 00:26:46;;;;;;;;;;;12.40;62.00;;;11.07;61.57;98467.44;12250794;19;19923;-85
2024/01/03 00:30:48;;;;;;;;;;;12.40;62.10;;;11.15;61.50;98465.88;12252049;19;19932;-85
2024/01/03 00:34:49;;;;;;;;;;;12.50;62.20;;;11.11;61.51;98454.09;12253159;19;19950;-85
2024/01/03 00:38:51;;;;;;;;;;;12.50;62.10;;;11.16;61.54;98472.78;12253002;19;19919;-85
2024/01/03 00:42:53;;;;;;;;;;;12.50;62.10;;;11.14;61.54;98451.19;12253846;19;19925;-85
2024/01/03 00:46:56;;;;;;;;;;;12.50;62.40;;;11.20;61.55;98458.44;12250817;19;20320;-85
2024/01/03 00:50:57;;;;;;;;;;;12.60;62.00;;;11.18;61.46;98452.53;12254890;19;19914;-84
2024/01/03 00:54:59;;;;;;;;;;;12.60;62.20;;;11.22;61.48;98457.34;12252099;19;19935;-85
2024/01/03 00:59:00;;;;;;;;;;;12.60;62.00;;;11.16;61.56;98447.47;12253131;19;19926;-85
2024/01/03 01:03:03;;;;;;;;;;;12.60;61.80;;;11.21;61.54;98449.66;12252548;19;19917;-85
2024/01/03 01:07:04;;;;;;;;;;;12.70;62.10;;;11.38;61.71;98479.41;12248352;19;19907;-85
2024/01/03 01:11:06;;;;;;;;;;;12.70;61.90;;;11.33;61.54;98461.53;12252072;19;19918;-84
2024/01/03 01:15:07;;;;;;;;;;;12.70;61.70;;;11.32;61.65;98461.72;12251584;19;19926;-84
2024/01/03 01:19:09;;;;;;;;;;;12.70;61.90;;;11.38;61.48;98472.38;12254052;19;20377;-85
2024/01/03 01:23:11;;;;;;;;;;;12.70;62.00;;;11.38;61.50;98475.00;12252254;19;19940;-85
2024/01/03 01:27:12;;;;;;;;;;;12.80;62.10;;;11.38;61.64;98466.34;12248483;19;19925;-85
2024/01/03 01:31:14;;;;;;;;;;;12.70;62.70;;;11.48;61.57;98486.22;12251981;19;19915;-85
2024/01/03 01:35:17;;;;;;;;;;;12.80;62.70;;;11.51;61.67;98488.56;12250420;19;20401;-85
2024/01/03 01:39:19;;;;;;;;;;;12.80;62.40;;;11.49;61.57;98473.97;12252777;19;19919;-85
2024/01/03 01:43:20;;;;;;;;;;;12.80;62.50;;;11.50;61.61;98494.75;12250681;19;19938;-85
2024/01/03 01:47:22;;;;;;;;;;;12.80;62.40;;;11.48;61.66;98482.81;12250315;19;19918;-84
2024/01/03 01:51:23;;;;;;;;;;;12.80;62.20;;;11.43;61.65;98470.16;12250453;19;19986;-85
2024/01/03 01:55:25;;;;;;;;;;;12.80;61.90;;;11.50;61.81;98491.28;12250266;19;19911;-85
2024/01/03 01:59:27;;;;;;;;;;;12.80;61.70;;;11.54;61.55;98489.22;12250485;19;19982;-85
2024/01/03 02:03:28;;;;;;;;;;;12.80;62.20;;;11.51;61.72;98496.38;12249612;19;20425;-85
2024/01/03 02:07:30;;;;;;;;;;;12.80;62.00;;;11.57;61.63;98499.38;12248564;19;19982;-85
2024/01/03 02:11:32;;;;;;;;;;;12.80;61.80;;;11.58;61.75;98499.22;12243996;19;19982;-85
2024/01/03 02:15:33;;;;;;;;;;;12.90;62.30;;;11.52;61.76;98487.56;12248886;19;20258;-85
2024/01/03 02:19:35;;;;;;;;;;;12.80;61.90;;;11.51;61.63;98480.72;12250318;19;19918;-85
2024/01/03 02:23:37;;;;;;;;;;;12.80;62.20;;;11.50;61.83;98479.06;12248924;19;19915;-85
2024/01/03 02:27:38;;;;;;;;;;;12.80;61.90;;;11.52;61.56;98484.13;12246651;19;19947;-85
2024/01/03 02:31:40;;;;;;;;;;;12.90;62.00;;;11.55;61.66;98486.44;12249135;19;19926;-85
2024/01/03 02:35:41;;;;;;;;;;;12.90;61.90;;;11.55;61.81;98494.28;12246942;19;19923;-85
2024/01/03 02:39:43;;;;;;;;;;;12.80;61.90;;;11.56;61.75;98497.72;12248184;19;19915;-85
2024/01/03 02:43:45;;;;;;;;;;;12.80;61.80;;;11.55;61.62;98489.06;12249323;19;19926;-85
2024/01/03 02:47:46;;;;;;;;;;;12.90;62.10;;;11.65;61.84;98494.25;12247814;19;19990;-85
2024/01/03 02:51:47;;;;;;;;;;;12.90;62.30;;;11.66;61.69;98495.88;12245629;19;20172;-85
2024/01/03 02:55:49;;;;;;;;;;;12.90;62.10;;;11.46;61.68;98459.41;12245717;19;19942;-85
2024/01/03 02:59:50;;;;;;;;;;;12.90;62.30;;;11.59;61.81;98487.81;12247341;19;19922;-85
2024/01/03 03:03:52;;;;;;;;;;;12.90;62.10;;;11.60;61.84;98486.84;12246926;19;19923;-85
2024/01/03 03:07:53;;;;;;;;;;;12.90;62.00;;;11.63;61.88;98494.38;12247203;19;19922;-85
2024/01/03 03:11:55;;;;;;;;;;;13.00;62.10;;;11.65;61.74;98495.06;12245105;19;19922;-85
2024/01/03 03:15:56;;;;;;;;;;;13.00;62.00;;;11.54;61.65;98476.97;12242148;19;19922;-85
2024/01/03 03:19:58;;;;;;;;;;;13.00;62.10;;;11.69;61.86;98506.03;12244084;19;19927;-85
2024/01/03 03:24:03;;;;;;;;;;;13.00;62.30;;;11.68;61.82;98504.41;12245767;19;19955;-85
2024/01/03 03:28:07;;;;;;;;;;;13.00;62.20;;;11.71;61.63;98504.94;12245088;19;19938;-85
2024/01/03 03:32:10;;;;;;;;;;;13.00;62.00;;;11.75;61.67;98505.47;12245758;19;19911;-85
2024/01/03 03:36:12;;;;;;;;;;;13.00;62.00;;;11.71;61.79;98504.13;12243079;19;20252;-85
2024/01/03 03:40:14;;;;;;;;;;;13.00;62.30;;;11.66;61.83;98501.13;12246296;19;19940;-84
2024/01/03 03:44:16;;;;;;;;;;;13.00;61.80;;;11.67;61.86;98511.44;12244461;19;20344;-85
2024/01/03 03:48:17;;;;;;;;;;;12.90;61.80;;;11.68;61.69;98520.91;12241729;19;19919;-85
2024/01/03 03:52:18;;;;;;;;;;;12.90;61.40;;;11.71;61.91;98528.47;12243841;19;19918;-85
2024/01/03 03:56:24;;;;;;;;;;;12.90;61.40;;;11.59;61.72;98505.31;12244417;19;19911;-85
2024/01/03 04:00:25;;;;;;;;;;;12.90;61.30;;;11.70;61.85;98524.22;12245814;19;19978;-85
2024/01/03 04:04:27;;;;;;;;;;;12.90;61.20;;;11.64;61.78;98514.34;12245450;19;19945;-85
2024/01/03 04:08:28;;;;;;;;;;;12.90;61.20;;;11.61;61.66;98509.41;12252188;19;19911;-85
2024/01/03 04:12:31;;;;;;;;;;;12.90;61.10;;;11.50;61.83;98497.38;12256801;19;19919;-85
2024/01/03 04:16:32;;;;;;;;;;;13.00;61.20;;;11.65;61.72;98526.44;12254904;19;19917;-85
2024/01/03 04:20:34;;;;;;;;;;;12.90;61.10;;;11.66;61.72;98519.41;12255495;19;19930;-85
2024/01/03 04:24:36;;;;;;;;;;;12.90;61.20;;;11.53;61.74;98501.47;12254732;19;19934;-85
2024/01/03 04:28:38;;;;;;;;;;;12.80;60.90;;;11.63;61.61;98523.16;12250611;19;19938;-85
2024/01/03 04:32:39;;;;;;;;;;;12.80;61.10;;;11.59;61.61;98521.81;12254936;19;20337;-85
2024/01/03 04:36:41;;;;;;;;;;;12.90;60.90;;;11.51;61.74;98508.63;12254968;19;19923;-85
2024/01/03 04:40:43;;;;;;;;;;;12.80;60.80;;;11.39;61.58;98494.91;12255635;19;19927;-85
2024/01/03 04:44:44;;;;;;;;;;;12.70;60.70;;;11.41;61.79;98508.69;12253023;19;19946;-85
2024/01/03 04:48:46;;;;;;;;;;;12.70;60.80;;;11.46;61.65;98516.91;12252765;19;19974;-85
2024/01/03 04:52:48;;;;;;;;;;;12.70;60.80;;;11.37;61.62;98517.78;12254761;19;19923;-85
2024/01/03 04:56:50;;;;;;;;;;;12.70;60.90;;;11.38;61.75;98526.44;12248189;19;19923;-85
2024/01/03 05:00:51;;;;;;;;;;;12.70;61.20;;;11.33;61.61;98524.25;12254504;19;20321;-85
2024/01/03 05:04:53;;;;;;;;;;;12.60;61.00;;;11.38;61.80;98532.47;12254135;19;19926;-85
2024/01/03 05:08:54;;;;;;;;;;;12.60;60.90;;;11.15;61.71;98498.06;12253425;19;19964;-85
2024/01/03 05:12:56;;;;;;;;;;;12.60;60.90;;;11.38;61.75;98537.72;12255194;19;19921;-85
2024/01/03 05:16:58;;;;;;;;;;;12.60;60.80;;;11.23;61.60;98520.84;12250932;19;19939;-85
2024/01/03 05:21:00;;;;;;;;;;;12.50;60.70;;;11.35;61.79;98545.84;12251108;19;19918;-85
2024/01/03 05:25:02;;;;;;;;;;;12.60;60.80;;;11.23;61.80;98536.53;12250571;19;19914;-84
2024/01/03 05:29:04;;;;;;;;;;;12.50;60.60;;;11.22;61.87;98542.72;12252287;19;20321;-84
2024/01/03 05:33:05;;;;;;;;;;;12.50;60.80;;;11.20;61.85;98542.84;12248341;19;19929;-85
2024/01/03 05:37:07;;;;;;;;;;;12.50;60.80;;;11.24;61.91;98551.25;12249101;19;20254;-84
2024/01/03 05:41:08;;;;;;;;;;;12.50;61.10;;;11.14;61.65;98542.63;12252024;19;19974;-85
2024/01/03 05:45:11;;;;;;;;;;;12.50;60.80;;;11.18;61.60;98554.41;12247847;19;19991;-85
2024/01/03 05:49:12;;;;;;;;;;;12.40;60.70;;;11.24;61.61;98574.75;12250599;19;19929;-85
2024/01/03 05:53:14;;;;;;;;;;;12.40;60.60;;;11.03;61.63;98533.16;12247938;19;20230;-85
2024/01/03 05:57:15;;;;;;;;;;;12.40;60.70;;;11.15;61.83;98559.91;12244520;19;19929;-85
2024/01/03 06:01:16;;;;;;;;;;;12.40;60.80;;;11.12;61.92;98561.03;12246195;19;19922;-85
2024/01/03 06:05:21;;;;;;;;;;;12.40;60.90;;;11.14;61.86;98564.34;12243081;19;22603;-85
2024/01/03 06:09:23;;;;;;;;;;;12.40;61.00;;;10.95;61.87;98535.66;12248894;19;19922;-85
2024/01/03 06:13:25;;;;;;;;;;;12.40;61.00;;;11.13;62.08;98567.09;12248496;19;19931;-84
2024/01/03 06:17:27;;;;;;;;;;;12.40;61.00;;;11.17;61.85;98571.88;12245275;19;19931;-85
2024/01/03 06:21:28;;;;;;;;;;;12.40;61.00;;;11.23;61.93;98587.00;12250186;19;20368;-85
2024/01/03 06:25:31;;;;;;;;;;;12.50;61.00;;;11.25;61.91;98587.66;12247717;19;19919;-85
2024/01/03 06:29:33;;;;;;;;;;;12.50;60.90;;;11.28;61.73;98604.84;12248724;19;19932;-85
2024/01/03 06:33:35;;;;;;;;;;;12.50;61.00;;;11.10;61.93;98576.03;12256688;19;20358;-85
2024/01/03 06:37:36;;;;;;;;;;;12.50;61.30;;;11.23;61.76;98599.22;12249909;19;20349;-85
2024/01/03 06:41:38;;;;;;;;;;;12.60;61.10;;;11.30;61.92;98610.75;12252510;19;19919;-85
2024/01/03 06:45:39;;;;;;;;;;;12.50;61.10;;;11.03;62.00;98583.59;12250486;19;19927;-86
2024/01/03 06:49:41;;;;;;;;;;;12.60;61.10;;;11.29;61.82;98617.78;12247660;19;19918;-84
2024/01/03 06:53:43;;;;;;;;;;;12.60;61.10;;;11.37;61.95;98637.13;12250306;19;20263;-84
2024/01/03 06:57:45;;;;;;;;;;;12.60;61.00;;;11.40;61.98;98648.16;12245945;19;19915;-83
2024/01/03 07:01:46;;;;;;;;;;;12.70;61.00;;;11.33;61.74;98648.84;12248736;19;20315;-84
2024/01/03 07:05:48;;;;;;;;;;;12.70;60.90;;;11.35;61.90;98650.38;12245532;19;20411;-84
2024/01/03 07:09:49;;;;;;;;;;;12.60;60.70;;;11.41;61.91;98649.78;12248507;19;19934;-84
2024/01/03 07:13:51;;;;;;;;;;;12.70;60.80;;;11.24;61.87;98627.84;12248224;19;19923;-84
2024/01/03 07:17:56;;;;;;;;;;;12.70;60.90;;;11.24;62.00;98637.47;12244841;19;19917;-83
2024/01/03 07:21:58;;;;;;;;;;;12.70;60.80;;;11.41;62.00;98648.97;12247859;19;19915;-85
2024/01/03 07:25:59;;;;;;;;;;;12.70;60.80;;;11.23;62.01;98630.56;12244925;19;19978;-84
2024/01/03 07:30:01;;;;;;;;;;;12.70;60.80;;;11.48;61.94;98658.72;12245987;19;19956;-85
2024/01/03 07:34:03;;;;;;;;;;;12.80;60.70;;;11.54;62.02;98674.81;12240722;19;19914;-85
2024/01/03 07:38:06;;;;;;;;;;;12.70;60.50;;;11.55;61.86;98676.44;12246018;19;19923;-84
2024/01/03 07:42:09;;;;;;;;;;;12.80;60.50;;;11.55;61.89;98666.00;12260189;19;19919;-85
2024/01/03 07:46:10;;;;;;;;;;;12.80;60.50;;;11.50;61.87;98667.25;12254474;19;19919;-85
2024/01/03 07:50:12;;;;;;;;;;;12.80;60.50;;;11.37;61.83;98645.81;12260310;19;20272;-89
2024/01/03 07:54:13;;;;;;;;;;;12.80;60.40;;;11.57;61.99;98677.97;12255462;19;19946;-85
2024/01/03 07:58:14;;;;;;;;;;;12.90;60.50;;;11.34;61.88;98638.28;12253247;19;19988;-85
2024/01/03 08:02:16;;;;;;;;;;;12.80;60.30;;;11.34;61.88;98648.72;12261056;19;19926;-85
2024/01/03 08:06:20;;;;;;;;;;;12.80;60.20;;;11.42;62.04;98651.47;12255315;19;19915;-85
2024/01/03 08:10:22;;;;;;;;;;;12.80;60.20;;;11.62;61.96;98683.59;12253166;19;19919;-85
2024/01/03 08:14:23;;;;;;;;;;;12.90;60.10;;;11.40;61.93;98653.38;12243469;19;19986;-85
2024/01/03 08:18:25;;;;;;;;;;;12.90;60.10;;;11.61;62.06;98675.88;12243873;19;19930;-85
2024/01/03 08:22:26;;;;;;;;;;;12.90;60.10;;;11.58;61.99;98678.78;12245310;19;19919;-85
2024/01/03 08:26:28;;;;;;;;;;;12.90;60.00;;;11.66;61.82;98686.72;12244880;19;19941;-86
2024/01/03 08:30:29;;;;;;;;;;;12.90;60.00;;;11.62;62.00;98677.53;12252786;19;19963;-85
2024/01/03 08:34:30;;;;;;;;;;;13.00;60.00;;;11.67;61.97;98683.19;12249302;19;19942;-85
2024/01/03 08:38:32;;;;;;;;;;;13.00;60.00;;;11.67;62.04;98691.00;12246350;19;19922;-85
2024/01/03 08:42:34;;;;;;;;;;;13.00;59.90;;;11.69;61.98;98689.06;12250722;19;19918;-85
2024/01/03 08:46:40;;;;;;;;;;;13.00;59.90;;;11.72;61.92;98692.25;12245195;19;20278;-85
2024/01/03 08:50:43;;;;;;;;;;;13.00;59.80;;;11.66;61.94;98669.25;12248767;19;19923;-85
2024/01/03 08:54:45;;;;;;;;;;;13.10;59.90;;;11.82;61.96;98688.75;12249089;19;19923;-85
2024/01/03 08:58:47;;;;;;;;;;;13.10;59.90;;;11.88;61.85;98683.81;12247456;19;19978;-84
2024/01/03 09:02:48;;;;;;;;;;;13.10;59.90;;;11.85;62.01;98684.06;12250218;19;19959;-85
2024/01/03 09:06:52;;;;;;;;;;;13.20;59.90;;;11.85;61.97;98678.81;12245469;19;19936;-86
2024/01/03 09:10:54;;;;;;;;;;;13.20;59.90;;;11.98;62.07;98699.47;12248270;19;19911;-85
2024/01/03 09:14:56;;;;;;;;;;;13.20;59.90;;;11.88;61.96;98677.75;12250387;19;21435;-85
2024/01/03 09:18:57;;;;;;;;;;;13.30;59.80;;;11.94;61.98;98678.00;12250396;19;19926;-85
2024/01/03 09:22:59;;;;;;;;;;;13.30;59.80;;;12.06;62.00;98688.28;12249359;19;19926;-85
2024/01/03 09:27:00;;;;;;;;;;;13.40;60.00;;;12.10;62.05;98693.09;12244406;19;19922;-85
2024/01/03 09:31:02;;;;;;;;;;;13.40;60.00;;;12.18;62.07;98695.00;12247848;19;19919;-85
2024/01/03 09:35:04;;;;;;;;;;;13.50;59.90;;;12.24;61.98;98688.34;12249984;19;19982;-86
2024/01/03 09:39:06;;;;;;;;;;;13.50;59.60;;;12.20;61.98;98673.91;12249353;19;20304;-85
2024/01/03 09:43:09;;;;;;;;;;;13.60;59.70;;;12.26;61.92;98689.00;12247270;19;19931;-85
2024/01/03 09:47:12;;;;;;;;;;;13.60;59.70;;;12.33;61.85;98688.28;12243313;19;19923;-86
2024/01/03 09:51:14;;;;;;;;;;;13.70;59.70;;;12.35;61.92;98686.34;12246593;19;19918;-86
2024/01/03 09:55:16;;;;;;;;;;;13.70;59.50;;;12.43;61.98;98695.28;12245423;19;19939;-85
2024/01/03 09:59:19;;;;;;;;;;;13.80;59.70;;;12.54;62.01;98701.13;12246945;19;19915;-85
2024/01/03 10:03:21;;;;;;;;;;;13.80;59.70;;;12.61;61.95;98714.47;12243447;19;19915;-85
2024/01/03 10:07:32;;;;;;;;;;;13.90;59.70;;;12.65;61.93;98700.09;12242638;19;19923;-85
2024/01/03 10:11:34;;;;;;;;;;;13.90;59.60;;;12.58;61.97;98681.53;12245522;19;19919;-85
2024/01/03 10:15:37;;;;;;;;;;;14.00;59.70;;;12.68;62.08;98697.16;12244736;19;20336;-85
2024/01/03 10:19:39;;;;;;;;;;;14.00;59.30;;;12.78;61.86;98700.56;12246696;19;19919;-85
2024/01/03 10:23:41;;;;;;;;;;;14.10;59.50;;;12.74;61.99;98688.72;12246255;19;19915;-84
2024/01/03 10:27:42;;;;;;;;;;;14.10;59.50;;;12.84;61.92;98693.88;12243001;19;20528;-85
2024/01/03 10:31:48;;;;;;;;;;;14.10;59.10;;;12.85;61.83;98698.16;12247476;19;19915;-85
2024/01/03 10:35:50;;;;;;;;;;;14.20;59.50;;;12.93;61.94;98702.66;12243276;19;20045;-84
2024/01/03 10:39:51;;;;;;;;;;;14.30;59.50;;;12.97;61.95;98694.34;12243621;19;20340;-85
2024/01/03 10:43:54;;;;;;;;;;;14.30;59.50;;;13.05;61.77;98704.91;12244625;19;20633;-86
2024/01/03 10:47:57;;;;;;;;;;;14.30;59.50;;;12.86;61.74;98664.94;12242557;19;19934;-85
2024/01/03 10:52:03;;;;;;;;;;;14.40;59.40;;;13.09;62.01;98691.50;12251980;19;19907;-86
2024/01/03 10:56:04;;;;;;;;;;;14.40;59.30;;;13.00;61.78;98678.31;12240250;19;19926;-85
2024/01/03 11:00:17;;;;;;;;;;;14.50;59.10;;;13.09;61.82;98688.88;12247471;19;19911;-85
2024/01/03 11:04:42;;;;;;;;;;;14.50;59.30;;;13.19;61.89;98692.22;12246070;19;19923;-85
2024/01/03 11:08:54;;;;;;;;;;;14.50;59.40;;;13.18;61.83;98680.94;12245082;19;19959;-85
2024/01/03 11:12:57;;;;;;;;;;;14.60;59.30;;;13.23;61.82;98689.16;12244821;19;19978;-85
2024/01/03 11:16:59;;;;;;;;;;;14.60;59.30;;;13.24;61.87;98682.94;12244054;19;20246;-85
2024/01/03 11:21:28;;;;;;;;;;;14.60;59.30;;;13.30;61.79;98685.97;12243759;19;19925;-85
2024/01/03 11:25:49;;;;;;;;;;;14.60;59.10;;;13.27;61.85;98671.34;12244657;19;19923;-85
2024/01/03 11:29:53;;;;;;;;;;;14.60;59.00;;;13.23;61.76;98668.19;12243393;19;19926;-85
2024/01/03 11:33:55;;;;;;;;;;;14.60;59.20;;;13.40;61.73;98678.84;12246024;19;19957;-85
2024/01/03 11:37:56;;;;;;;;;;;14.70;58.90;;;13.31;61.73;98659.56;12242506;19;19915;-85
2024/01/03 11:41:58;;;;;;;;;;;14.70;59.00;;;13.36;61.69;98674.84;12243662;19;20304;-85
2024/01/03 11:46:10;;;;;;;;;;;14.70;59.10;;;13.44;61.60;98677.53;12240597;19;19942;-85
2024/01/03 11:50:14;;;;;;;;;;;14.70;58.70;;;13.37;61.71;98666.84;12243518;19;19930;-85
2024/01/03 11:54:15;;;;;;;;;;;14.70;59.00;;;13.41;61.77;98673.41;12246061;19;19907;-85
2024/01/03 11:58:17;;;;;;;;;;;14.70;59.10;;;13.46;61.69;98675.59;12242151;19;19923;-84
2024/01/03 12:02:19;;;;;;;;;;;14.80;59.00;;;13.46;61.67;98680.84;12246015;19;19915;-84
2024/01/03 12:06:21;;;;;;;;;;;14.80;59.00;;;13.42;61.52;98669.00;12241811;19;19922;-85
2024/01/03 12:10:23;;;;;;;;;;;14.80;59.20;;;13.40;61.58;98663.91;12244081;19;19942;-86
2024/01/03 12:14:25;;;;;;;;;;;14.80;59.10;;;13.42;61.63;98664.59;12243456;19;20325;-85
2024/01/03 12:18:27;;;;;;;;;;;14.80;59.20;;;13.36;61.67;98646.03;12237704;19;19925;-85
2024/01/03 12:22:29;;;;;;;;;;;14.80;59.10;;;13.50;61.60;98666.41;12244930;19;19919;-85
2024/01/03 12:26:30;;;;;;;;;;;14.70;59.20;;;13.43;61.52;98650.50;12246686;19;20325;-86
2024/01/03 12:30:31;;;;;;;;;;;14.80;59.10;;;13.43;61.47;98649.69;12257448;19;19933;-85
2024/01/03 12:34:33;;;;;;;;;;;14.80;59.20;;;13.44;61.63;98653.94;12255034;19;19919;-85
2024/01/03 12:38:34;;;;;;;;;;;14.80;59.30;;;13.32;61.55;98615.88;12253116;19;19923;-84
2024/01/03 12:42:35;;;;;;;;;;;14.80;59.20;;;13.56;61.52;98657.13;12258114;19;19933;-84
2024/01/03 12:46:37;;;;;;;;;;;14.80;59.10;;;13.58;61.60;98650.72;12253617;19;19923;-84
2024/01/03 12:50:40;;;;;;;;;;;14.80;59.10;;;13.40;61.54;98613.28;12256837;19;19913;-86
2024/01/03 12:54:41;;;;;;;;;;;14.80;59.20;;;13.47;61.54;98633.50;12257289;19;19978;-84
2024/01/03 12:58:42;;;;;;;;;;;14.80;59.00;;;13.51;61.57;98631.38;12251434;19;19915;-84
2024/01/03 13:02:43;;;;;;;;;;;14.80;58.90;;;13.53;61.43;98629.44;12250267;19;19923;-84
2024/01/03 13:06:45;;;;;;;;;;;14.80;59.00;;;13.51;61.54;98620.88;12249632;19;19919;-85
2024/01/03 13:10:47;;;;;;;;;;;14.90;58.80;;;13.52;61.41;98616.47;12250458;19;19933;-84
2024/01/03 13:14:50;;;;;;;;;;;14.80;58.90;;;13.51;61.47;98613.03;12252687;19;20439;-83
2024/01/03 13:18:51;;;;;;;;;;;14.90;59.00;;;13.64;61.53;98626.53;12250524;19;19940;-83
2024/01/03 13:22:53;;;;;;;;;;;14.90;59.00;;;13.65;61.34;98627.34;12253396;19;19919;-83
2024/01/03 13:26:55;;;;;;;;;;;14.90;59.00;;;13.71;61.47;98630.16;12248870;19;19929;-84
2024/01/03 13:30:56;;;;;;;;;;;14.90;59.00;;;13.73;61.46;98630.00;12254271;19;20348;-84
2024/01/03 13:34:59;;;;;;;;;;;14.90;58.90;;;13.54;61.46;98588.28;12251697;19;19934;-83
2024/01/03 13:39:01;;;;;;;;;;;15.00;59.00;;;13.71;61.45;98605.72;12250505;19;19918;-84
2024/01/03 13:43:02;;;;;;;;;;;15.00;58.90;;;13.51;61.44;98576.31;12252381;19;19923;-83
2024/01/03 13:47:04;;;;;;;;;;;15.00;58.60;;;13.79;61.37;98618.06;12247204;19;19974;-84
2024/01/03 13:51:05;;;;;;;;;;;15.00;58.70;;;13.59;61.30;98594.72;12253457;19;19919;-84
2024/01/03 13:55:07;;;;;;;;;;;15.00;58.80;;;13.77;61.30;98620.03;12251221;19;20084;-84
2024/01/03 13:59:09;;;;;;;;;;;15.00;58.70;;;13.82;61.25;98636.13;12251486;19;19910;-84
2024/01/03 14:03:11;;;;;;;;;;;15.00;58.50;;;13.79;61.36;98639.06;12252173;19;19911;-84
2024/01/03 14:07:14;;;;;;;;;;;15.10;58.50;;;13.81;61.44;98639.72;12244413;19;19929;-84
2024/01/03 14:11:18;;;;;;;;;;;15.10;58.60;;;13.59;61.35;98610.44;12252648;19;19926;-85
2024/01/03 14:15:20;;;;;;;;;;;15.00;58.40;;;13.75;61.35;98643.00;12248985;19;20425;-84
2024/01/03 14:19:21;;;;;;;;;;;15.00;58.60;;;13.59;61.44;98618.31;12252616;19;19974;-84
2024/01/03 14:23:23;;;;;;;;;;;15.10;58.70;;;13.63;61.17;98634.53;12251014;19;19922;-84
2024/01/03 14:27:24;;;;;;;;;;;15.10;58.70;;;13.74;61.30;98655.25;12248076;19;20349;-84
2024/01/03 14:31:26;;;;;;;;;;;15.10;58.60;;;13.78;61.34;98668.91;12252254;19;19992;-84
2024/01/03 14:35:28;;;;;;;;;;;15.10;58.70;;;13.60;61.30;98659.28;12248371;19;20588;-84
2024/01/03 14:39:30;;;;;;;;;;;15.00;58.60;;;13.66;61.24;98666.56;12247528;19;19914;-84
2024/01/03 14:43:31;;;;;;;;;;;15.00;58.50;;;13.69;61.28;98676.72;12251684;19;19914;-84
2024/01/03 14:47:33;;;;;;;;;;;15.00;58.60;;;13.66;61.24;98676.19;12246363;19;19928;-85
2024/01/03 14:51:34;;;;;;;;;;;15.00;58.50;;;13.62;61.15;98678.31;12250417;19;19943;-84
2024/01/03 14:55:36;;;;;;;;;;;14.90;58.70;;;13.57;61.26;98680.56;12244431;19;20020;-84
2024/01/03 14:59:39;;;;;;;;;;;14.90;58.50;;;13.57;61.21;98677.94;12247158;19;19926;-84
2024/01/03 15:03:41;;;;;;;;;;;14.90;58.80;;;13.55;61.21;98692.19;12246290;19;19923;-84
2024/01/03 15:07:42;;;;;;;;;;;14.90;58.70;;;13.52;61.19;98680.22;12247290;19;19914;-84
2024/01/03 15:11:44;;;;;;;;;;;14.90;58.70;;;13.62;61.25;98701.91;12247517;19;19922;-84
2024/01/03 15:15:47;;;;;;;;;;;14.80;58.70;;;13.48;61.10;98689.38;12247622;19;19915;-84
2024/01/03 15:19:48;;;;;;;;;;;14.80;58.60;;;13.53;61.15;98702.84;12248649;19;19919;-84
2024/01/03 15:23:49;;;;;;;;;;;14.80;58.60;;;13.53;61.15;98705.47;12249304;19;19915;-84
2024/01/03 15:27:54;;;;;;;;;;;14.70;58.60;;;13.42;61.26;98703.06;12245207;19;19919;-84
2024/01/03 15:31:57;;;;;;;;;;;14.70;58.60;;;13.42;61.12;98708.31;12248712;19;19919;-84
2024/01/03 15:35:59;;;;;;;;;;;14.70;58.60;;;13.38;61.17;98699.13;12246130;19;19907;-84
2024/01/03 15:40:01;;;;;;;;;;;14.70;58.40;;;13.43;61.09;98720.47;12246628;19;20325;-84
2024/01/03 15:44:02;;;;;;;;;;;14.70;58.40;;;13.31;61.17;98703.31;12239162;19;19930;-84
2024/01/03 15:48:05;;;;;;;;;;;14.70;58.60;;;13.35;61.13;98707.31;12245948;19;19919;-84
2024/01/03 15:52:07;;;;;;;;;;;14.70;58.30;;;13.40;61.13;98721.59;12248106;19;19927;-84
2024/01/03 15:56:11;;;;;;;;;;;14.60;58.50;;;13.41;61.11;98719.78;12246874;19;20347;-84
2024/01/03 16:00:13;;;;;;;;;;;14.60;58.40;;;13.33;60.97;98717.94;12251586;19;19915;-84
2024/01/03 16:04:15;;;;;;;;;;;14.60;58.50;;;13.35;61.00;98720.41;12256584;19;19919;-84
2024/01/03 16:08:16;;;;;;;;;;;14.60;58.40;;;13.33;61.04;98722.34;12253780;19;19951;-84
2024/01/03 16:12:17;;;;;;;;;;;14.60;58.50;;;13.38;61.03;98723.53;12256699;19;20333;-84
2024/01/03 16:16:19;;;;;;;;;;;14.60;58.50;;;13.33;60.99;98717.09;12250798;19;19918;-84
2024/01/03 16:20:21;;;;;;;;;;;14.60;58.60;;;13.32;60.99;98716.28;12255429;19;19915;-84
2024/01/03 16:24:23;;;;;;;;;;;14.50;58.60;;;13.32;61.03;98716.28;12246547;19;20264;-84
2024/01/03 16:28:25;;;;;;;;;;;14.50;58.60;;;13.30;60.87;98723.47;12248575;19;19914;-84
2024/01/03 16:32:27;;;;;;;;;;;14.50;58.60;;;13.28;60.90;98720.19;12250860;19;20333;-85
2024/01/03 16:36:29;;;;;;;;;;;14.50;58.60;;;13.31;60.78;98726.91;12250497;19;19930;-85
2024/01/03 16:40:31;;;;;;;;;;;14.50;58.60;;;13.28;60.96;98720.19;12252623;19;19922;-85
2024/01/03 16:44:32;;;;;;;;;;;14.40;58.70;;;13.23;61.00;98712.75;12250910;19;20392;-85
2024/01/03 16:48:37;;;;;;;;;;;14.40;59.10;;;13.22;60.87;98711.09;12246752;19;20055;-85
2024/01/03 16:52:41;;;;;;;;;;;14.40;58.80;;;13.25;60.91;98713.41;12252257;19;19950;-85
2024/01/03 16:56:45;;;;;;;;;;;14.40;58.90;;;13.23;60.77;98704.03;12250790;19;19939;-84
2024/01/03 17:00:51;;;;;;;;;;;14.30;58.90;;;13.24;60.89;98714.38;12248637;19;19947;-84
2024/01/03 17:04:52;;;;;;;;;;;14.40;59.00;;;13.21;60.81;98704.22;12250112;19;19926;-85
2024/01/03 17:08:55;;;;;;;;;;;14.30;58.90;;;13.09;60.80;98684.44;12251147;19;19933;-85
2024/01/03 17:12:56;;;;;;;;;;;14.30;58.90;;;13.08;60.77;98701.16;12249919;19;19935;-85
2024/01/03 17:16:58;;;;;;;;;;;14.30;59.00;;;13.06;60.80;98703.91;12249404;19;19926;-85
2024/01/03 17:20:59;;;;;;;;;;;14.20;59.00;;;13.01;60.84;98703.53;12242901;19;19927;-85
2024/01/03 17:25:01;;;;;;;;;;;14.20;59.10;;;12.88;60.93;98683.94;12250028;19;19958;-84
2024/01/03 17:29:05;;;;;;;;;;;14.10;59.10;;;12.89;60.81;98693.44;12253755;19;19982;-84
2024/01/03 17:33:07;;;;;;;;;;;14.10;59.10;;;12.90;60.83;98702.94;12251020;19;19921;-84
2024/01/03 17:37:08;;;;;;;;;;;14.10;59.10;;;12.77;60.85;98675.34;12252826;19;19915;-84
2024/01/03 17:41:21;;;;;;;;;;;14.10;59.10;;;12.88;60.81;98700.50;12254129;19;19919;-84
2024/01/03 17:45:23;;;;;;;;;;;14.00;59.10;;;12.83;60.94;98689.63;12253185;19;19974;-83
2024/01/03 17:49:24;;;;;;;;;;;14.00;59.10;;;12.75;60.86;98674.66;12252505;19;20267;-83
2024/01/03 17:53:26;;;;;;;;;;;14.00;59.00;;;12.76;61.00;98692.00;12243491;19;19926;-84
2024/01/03 17:57:29;;;;;;;;;;;13.90;58.90;;;12.79;60.90;98701.38;12250336;19;19915;-83
2024/01/03 18:01:30;;;;;;;;;;;13.90;58.90;;;12.69;60.90;98677.03;12253786;19;19929;-84
2024/01/03 18:05:32;;;;;;;;;;;14.10;59.00;;;12.74;60.96;98685.28;12253317;19;19915;-84
2024/01/03 18:09:33;;;;;;;;;;;13.90;59.00;;;12.73;60.89;98684.47;12254213;19;20256;-84
2024/01/03 18:13:35;;;;;;;;;;;13.90;59.00;;;12.74;60.90;98686.09;12255769;19;19932;-84
2024/01/03 18:17:41;;;;;;;;;;;13.90;59.00;;;12.72;60.82;98674.13;12251315;19;19955;-84
2024/01/03 18:21:42;;;;;;;;;;;13.90;59.00;;;12.68;60.75;98670.97;12252672;19;19922;-84